sensor_id;sensor_type;location;lat;lon;timestamp;pressure;altitude;pressure_sealevel;temperature;humidity
13235;BME280;6683;48.506;9.050;2023-05-22T00:01:40;97689.72;;;16.64;59.73
13235;BME280;6683;48.506;9.050;2023-05-22T00:04:43;97688.88;;;16.64;59.81
13235;BME280;6683;48.506;9.050;2023-05-22T00:07:48;97691.00;;;16.62;59.78
13235;BME280;6683;48.506;9.050;2023-05-22T00:10:50;97689.59;;;16.59;59.81
13235;BME280;6683;48.506;9.050;2023-05-22T00:13:53;97692.72;;;16.56;59.81
13235;BME280;6683;48.506;9.050;2023-05-22T00:16:55;97687.31;;;16.51;59.68
13235;BME280;6683;48.506;9.050;2023-05-22T00:19:59;97680.22;;;16.45;59.87
13235;BME280;6683;48.506;9.050;2023-05-22T00:23:08;97674.78;;;16.40;59.80
13235;BME280;6683;48.506;9.050;2023-05-22T00:26:14;97681.06;;;16.34;59.72
13235;BME280;6683;48.506;9.050;2023-05-22T00:29:16;97682.56;;;16.30;59.64
13235;BME280;6683;48.506;9.050;2023-05-22T00:32:19;97679.78;;;16.25;59.86
13235;BME280;6683;48.506;9.050;2023-05-22T00:35:21;97681.56;;;16.20;59.73
13235;BME280;6683;48.506;9.050;2023-05-22T00:38:30;97673.69;;;16.13;59.75
13235;BME280;6683;48.506;9.050;2023-05-22T00:41:33;97677.63;;;16.11;60.16
13235;BME280;6683;48.506;9.050;2023-05-22T00:44:35;97678.09;;;16.08;60.12
13235;BME280;6683;48.506;9.050;2023-05-22T00:47:37;97679.38;;;16.05;60.02
13235;BME280;6683;48.506;9.050;2023-05-22T00:50:40;97682.50;;;16.02;60.41
13235;BME280;6683;48.506;9.050;2023-05-22T00:53:45;97682.97;;;15.99;60.42
13235;BME280;6683;48.506;9.050;2023-05-22T00:56:47;97688.53;;;15.97;60.38
13235;BME280;6683;48.506;9.050;2023-05-22T00:59:51;97687.16;;;15.95;60.47
13235;BME280;6683;48.506;9.050;2023-05-22T01:02:53;97691.06;;;15.92;60.36
13235;BME280;6683;48.506;9.050;2023-05-22T01:05:56;97691.56;;;15.89;60.53
13235;BME280;6683;48.506;9.050;2023-05-22T01:09:00;97687.50;;;15.87;60.51
13235;BME280;6683;48.506;9.050;2023-05-22T01:12:10;97686.34;;;15.83;60.59
13235;BME280;6683;48.506;9.050;2023-05-22T01:15:23;97693.97;;;15.79;60.50
13235;BME280;6683;48.506;9.050;2023-05-22T01:18:33;97692.03;;;15.75;60.64
13235;BME280;6683;48.506;9.050;2023-05-22T01:21:47;97697.22;;;15.70;60.59
13235;BME280;6683;48.506;9.050;2023-05-22T01:25:24;97698.72;;;15.66;60.63
13235;BME280;6683;48.506;9.050;2023-05-22T01:28:55;97707.38;;;15.61;60.74
13235;BME280;6683;48.506;9.050;2023-05-22T01:32:06;97705.16;;;15.58;60.94
13235;BME280;6683;48.506;9.050;2023-05-22T01:35:11;97707.25;;;15.56;60.87
13235;BME280;6683;48.506;9.050;2023-05-22T01:38:16;97706.66;;;15.54;61.09
13235;BME280;6683;48.506;9.050;2023-05-22T01:41:20;97714.06;;;15.52;60.96
13235;BME280;6683;48.506;9.050;2023-05-22T01:44:22;97714.31;;;15.51;61.16
13235;BME280;6683;48.506;9.050;2023-05-22T01:47:26;97710.03;;;15.50;61.33
13235;BME280;6683;48.506;9.050;2023-05-22T01:50:28;97708.41;;;15.49;61.14
13235;BME280;6683;48.506;9.050;2023-05-22T01:53:38;97713.16;;;15.47;61.26
13235;BME280;6683;48.506;9.050;2023-05-22T01:56:49;97714.41;;;15.44;61.23
13235;BME280;6683;48.506;9.050;2023-05-22T02:00:00;97711.97;;;15.43;61.37
13235;BME280;6683;48.506;9.050;2023-05-22T02:03:16;97713.59;;;15.44;61.28
13235;BME280;6683;48.506;9.050;2023-05-22T02:06:20;97712.81;;;15.43;61.22
13235;BME280;6683;48.506;9.050;2023-05-22T02:09:23;97715.22;;;15.45;61.17
13235;BME280;6683;48.506;9.050;2023-05-22T02:12:29;97715.00;;;15.46;61.50
13235;BME280;6683;48.506;9.050;2023-05-22T02:15:31;97712.91;;;15.48;61.57
13235;BME280;6683;48.506;9.050;2023-05-22T02:18:35;97714.53;;;15.49;61.70
13235;BME280;6683;48.506;9.050;2023-05-22T02:21:41;97705.75;;;15.49;61.42
13235;BME280;6683;48.506;9.050;2023-05-22T02:24:46;97711.41;;;15.52;61.77
13235;BME280;6683;48.506;9.050;2023-05-22T02:27:49;97709.31;;;15.54;61.75
13235;BME280;6683;48.506;9.050;2023-05-22T02:30:52;97710.97;;;15.55;61.98
13235;BME280;6683;48.506;9.050;2023-05-22T02:33:56;97711.31;;;15.59;62.03
13235;BME280;6683;48.506;9.050;2023-05-22T02:36:58;97714.09;;;15.64;62.00
13235;BME280;6683;48.506;9.050;2023-05-22T02:40:04;97712.03;;;15.66;62.20
13235;BME280;6683;48.506;9.050;2023-05-22T02:43:07;97718.94;;;15.67;62.17
13235;BME280;6683;48.506;9.050;2023-05-22T02:46:09;97724.63;;;15.70;62.00
13235;BME280;6683;48.506;9.050;2023-05-22T02:49:13;97727.31;;;15.70;62.16
13235;BME280;6683;48.506;9.050;2023-05-22T02:52:16;97735.50;;;15.69;61.88
13235;BME280;6683;48.506;9.050;2023-05-22T02:55:19;97737.38;;;15.68;62.05
13235;BME280;6683;48.506;9.050;2023-05-22T02:58:21;97737.38;;;15.68;62.06
13235;BME280;6683;48.506;9.050;2023-05-22T03:01:24;97737.81;;;15.65;62.04
13235;BME280;6683;48.506;9.050;2023-05-22T03:04:31;97744.38;;;15.63;61.88
13235;BME280;6683;48.506;9.050;2023-05-22T03:07:33;97736.88;;;15.60;61.68
13235;BME280;6683;48.506;9.050;2023-05-22T03:10:37;97736.50;;;15.56;61.86
13235;BME280;6683;48.506;9.050;2023-05-22T03:13:39;97731.09;;;15.51;61.86
13235;BME280;6683;48.506;9.050;2023-05-22T03:16:42;97729.44;;;15.50;62.11
13235;BME280;6683;48.506;9.050;2023-05-22T03:19:46;97727.84;;;15.49;61.90
13235;BME280;6683;48.506;9.050;2023-05-22T03:22:48;97734.19;;;15.48;61.91
13235;BME280;6683;48.506;9.050;2023-05-22T03:25:51;97731.75;;;15.47;62.18
13235;BME280;6683;48.506;9.050;2023-05-22T03:28:53;97729.69;;;15.49;62.29
13235;BME280;6683;48.506;9.050;2023-05-22T03:31:56;97726.59;;;15.52;62.46
13235;BME280;6683;48.506;9.050;2023-05-22T03:35:01;97730.25;;;15.51;62.36
13235;BME280;6683;48.506;9.050;2023-05-22T03:38:03;97731.44;;;15.55;62.34
13235;BME280;6683;48.506;9.050;2023-05-22T03:41:05;97724.84;;;15.57;62.51
13235;BME280;6683;48.506;9.050;2023-05-22T03:44:08;97734.22;;;15.60;62.50
13235;BME280;6683;48.506;9.050;2023-05-22T03:47:10;97722.09;;;15.64;62.74
13235;BME280;6683;48.506;9.050;2023-05-22T03:50:14;97721.59;;;15.67;62.67
13235;BME280;6683;48.506;9.050;2023-05-22T03:53:17;97727.88;;;15.72;62.81
13235;BME280;6683;48.506;9.050;2023-05-22T03:56:19;97714.66;;;15.77;62.72
13235;BME280;6683;48.506;9.050;2023-05-22T03:59:22;97722.78;;;15.82;62.88
13235;BME280;6683;48.506;9.050;2023-05-22T04:02:24;97712.47;;;15.86;63.01
13235;BME280;6683;48.506;9.050;2023-05-22T04:05:31;97722.44;;;15.90;62.91
13235;BME280;6683;48.506;9.050;2023-05-22T04:08:33;97719.09;;;15.95;62.86
13235;BME280;6683;48.506;9.050;2023-05-22T04:11:36;97710.63;;;15.98;62.95
13235;BME280;6683;48.506;9.050;2023-05-22T04:14:39;97717.34;;;16.00;62.88
13235;BME280;6683;48.506;9.050;2023-05-22T04:17:41;97724.31;;;16.02;62.87
13235;BME280;6683;48.506;9.050;2023-05-22T04:20:45;97720.25;;;15.99;62.87
13235;BME280;6683;48.506;9.050;2023-05-22T04:23:47;97727.41;;;15.98;62.71
13235;BME280;6683;48.506;9.050;2023-05-22T04:26:49;97727.16;;;16.00;62.91
13235;BME280;6683;48.506;9.050;2023-05-22T04:29:52;97732.03;;;16.03;62.95
13235;BME280;6683;48.506;9.050;2023-05-22T04:32:54;97734.00;;;16.08;63.00
13235;BME280;6683;48.506;9.050;2023-05-22T04:35:59;97731.25;;;16.14;63.07
13235;BME280;6683;48.506;9.050;2023-05-22T04:39:02;97742.56;;;16.21;62.93
13235;BME280;6683;48.506;9.050;2023-05-22T04:42:05;97741.88;;;16.26;63.00
13235;BME280;6683;48.506;9.050;2023-05-22T04:45:10;97741.16;;;16.30;62.95
13235;BME280;6683;48.506;9.050;2023-05-22T04:48:13;97751.94;;;16.35;62.81
13235;BME280;6683;48.506;9.050;2023-05-22T04:51:17;97752.03;;;16.40;63.01
13235;BME280;6683;48.506;9.050;2023-05-22T04:54:20;97754.34;;;16.48;62.85
13235;BME280;6683;48.506;9.050;2023-05-22T04:57:22;97749.72;;;16.55;63.07
13235;BME280;6683;48.506;9.050;2023-05-22T05:00:25;97749.03;;;16.60;63.23
13235;BME280;6683;48.506;9.050;2023-05-22T05:03:28;97745.88;;;16.63;62.88
13235;BME280;6683;48.506;9.050;2023-05-22T05:06:32;97742.19;;;16.64;62.89
13235;BME280;6683;48.506;9.050;2023-05-22T05:09:34;97753.50;;;16.71;63.04
13235;BME280;6683;48.506;9.050;2023-05-22T05:12:36;97746.91;;;16.73;63.08
13235;BME280;6683;48.506;9.050;2023-05-22T05:15:39;97743.84;;;16.82;63.45
13235;BME280;6683;48.506;9.050;2023-05-22T05:18:41;97743.50;;;16.90;63.22
13235;BME280;6683;48.506;9.050;2023-05-22T05:21:46;97741.03;;;17.00;63.07
13235;BME280;6683;48.506;9.050;2023-05-22T05:24:49;97752.69;;;17.10;63.16
13235;BME280;6683;48.506;9.050;2023-05-22T05:27:51;97750.47;;;17.19;62.87
13235;BME280;6683;48.506;9.050;2023-05-22T05:30:53;97752.75;;;17.27;62.52
13235;BME280;6683;48.506;9.050;2023-05-22T05:33:57;97747.00;;;17.35;62.82
13235;BME280;6683;48.506;9.050;2023-05-22T05:37:01;97754.88;;;17.41;62.70
13235;BME280;6683;48.506;9.050;2023-05-22T05:40:05;97754.50;;;17.49;62.46
13235;BME280;6683;48.506;9.050;2023-05-22T05:43:08;97755.97;;;17.57;62.39
13235;BME280;6683;48.506;9.050;2023-05-22T05:46:10;97763.56;;;17.65;62.59
13235;BME280;6683;48.506;9.050;2023-05-22T05:49:13;97755.16;;;17.73;62.31
13235;BME280;6683;48.506;9.050;2023-05-22T05:52:16;97761.97;;;17.81;62.36
13235;BME280;6683;48.506;9.050;2023-05-22T05:55:19;97771.41;;;17.88;62.08
13235;BME280;6683;48.506;9.050;2023-05-22T05:58:21;97765.34;;;17.93;62.27
13235;BME280;6683;48.506;9.050;2023-05-22T06:01:25;97764.94;;;18.01;62.22
13235;BME280;6683;48.506;9.050;2023-05-22T06:04:28;97766.41;;;18.08;62.06
13235;BME280;6683;48.506;9.050;2023-05-22T06:07:32;97762.50;;;18.16;62.05
13235;BME280;6683;48.506;9.050;2023-05-22T06:10:37;97772.34;;;18.32;61.98
13235;BME280;6683;48.506;9.050;2023-05-22T06:13:40;97767.50;;;18.46;61.90
13235;BME280;6683;48.506;9.050;2023-05-22T06:16:47;97768.47;;;18.56;61.67
13235;BME280;6683;48.506;9.050;2023-05-22T06:19:50;97773.19;;;18.71;61.62
13235;BME280;6683;48.506;9.050;2023-05-22T06:22:54;97776.03;;;18.86;61.32
13235;BME280;6683;48.506;9.050;2023-05-22T06:25:56;97774.84;;;18.98;61.01
13235;BME280;6683;48.506;9.050;2023-05-22T06:28:59;97776.84;;;19.08;61.04
13235;BME280;6683;48.506;9.050;2023-05-22T06:32:02;97775.09;;;19.19;60.85
13235;BME280;6683;48.506;9.050;2023-05-22T06:35:05;97782.16;;;19.30;60.77
13235;BME280;6683;48.506;9.050;2023-05-22T06:38:09;97780.19;;;19.42;60.64
13235;BME280;6683;48.506;9.050;2023-05-22T06:41:12;97777.63;;;19.57;60.61
13235;BME280;6683;48.506;9.050;2023-05-22T06:44:19;97774.84;;;19.73;60.48
13235;BME280;6683;48.506;9.050;2023-05-22T06:47:21;97768.25;;;19.86;60.39
13235;BME280;6683;48.506;9.050;2023-05-22T06:50:25;97766.78;;;20.00;59.97
13235;BME280;6683;48.506;9.050;2023-05-22T06:53:29;97774.13;;;20.15;59.71
13235;BME280;6683;48.506;9.050;2023-05-22T06:56:32;97779.56;;;20.25;59.85
13235;BME280;6683;48.506;9.050;2023-05-22T06:59:34;97780.44;;;20.35;59.63
13235;BME280;6683;48.506;9.050;2023-05-22T07:02:37;97774.63;;;20.48;59.21
13235;BME280;6683;48.506;9.050;2023-05-22T07:05:39;97780.31;;;20.62;58.88
13235;BME280;6683;48.506;9.050;2023-05-22T07:08:43;97778.00;;;20.76;58.66
13235;BME280;6683;48.506;9.050;2023-05-22T07:11:46;97786.91;;;20.91;58.38
13235;BME280;6683;48.506;9.050;2023-05-22T07:14:49;97785.66;;;21.04;58.01
13235;BME280;6683;48.506;9.050;2023-05-22T07:17:51;97777.09;;;21.17;58.14
13235;BME280;6683;48.506;9.050;2023-05-22T07:20:54;97784.63;;;21.30;57.87
13235;BME280;6683;48.506;9.050;2023-05-22T07:23:58;97789.78;;;21.46;57.93
13235;BME280;6683;48.506;9.050;2023-05-22T07:27:03;97777.75;;;21.69;57.47
13235;BME280;6683;48.506;9.050;2023-05-22T07:30:12;97786.94;;;21.98;57.25
13235;BME280;6683;48.506;9.050;2023-05-22T07:33:14;97780.16;;;22.31;56.77
13235;BME280;6683;48.506;9.050;2023-05-22T07:36:17;97780.94;;;22.62;55.89
13235;BME280;6683;48.506;9.050;2023-05-22T07:39:22;97780.03;;;22.91;55.93
13235;BME280;6683;48.506;9.050;2023-05-22T07:42:24;97785.03;;;23.18;55.39
13235;BME280;6683;48.506;9.050;2023-05-22T07:45:29;97776.59;;;23.40;54.98
13235;BME280;6683;48.506;9.050;2023-05-22T07:48:34;97780.78;;;23.61;54.62
13235;BME280;6683;48.506;9.050;2023-05-22T07:51:36;97774.69;;;23.84;54.48
13235;BME280;6683;48.506;9.050;2023-05-22T07:54:40;97769.16;;;24.04;54.25
13235;BME280;6683;48.506;9.050;2023-05-22T07:57:42;97769.22;;;24.28;53.91
13235;BME280;6683;48.506;9.050;2023-05-22T08:00:45;97765.28;;;24.44;53.61
13235;BME280;6683;48.506;9.050;2023-05-22T08:03:47;97776.69;;;24.59;53.15
13235;BME280;6683;48.506;9.050;2023-05-22T08:06:50;97768.78;;;24.68;53.06
13235;BME280;6683;48.506;9.050;2023-05-22T08:09:54;97766.16;;;24.87;52.50
13235;BME280;6683;48.506;9.050;2023-05-22T08:12:57;97770.97;;;25.13;52.03
13235;BME280;6683;48.506;9.050;2023-05-22T08:16:12;97767.34;;;25.42;51.56
13235;BME280;6683;48.506;9.050;2023-05-22T08:19:14;97766.84;;;25.58;50.94
13235;BME280;6683;48.506;9.050;2023-05-22T08:22:17;97762.59;;;25.71;50.70
13235;BME280;6683;48.506;9.050;2023-05-22T08:25:20;97761.34;;;25.82;50.78
13235;BME280;6683;48.506;9.050;2023-05-22T08:28:23;97754.53;;;26.03;50.38
13235;BME280;6683;48.506;9.050;2023-05-22T08:31:26;97753.09;;;26.24;50.09
13235;BME280;6683;48.506;9.050;2023-05-22T08:34:29;97752.53;;;26.41;49.62
13235;BME280;6683;48.506;9.050;2023-05-22T08:37:33;97753.81;;;26.43;49.45
13235;BME280;6683;48.506;9.050;2023-05-22T08:40:38;97753.72;;;26.48;48.97
13235;BME280;6683;48.506;9.050;2023-05-22T08:43:41;97745.53;;;26.53;48.75
13235;BME280;6683;48.506;9.050;2023-05-22T08:46:44;97741.81;;;26.63;49.03
13235;BME280;6683;48.506;9.050;2023-05-22T08:49:49;97747.16;;;26.81;48.86
13235;BME280;6683;48.506;9.050;2023-05-22T08:52:55;97741.84;;;26.90;48.56
13235;BME280;6683;48.506;9.050;2023-05-22T08:56:00;97746.66;;;26.93;47.54
13235;BME280;6683;48.506;9.050;2023-05-22T08:59:04;97741.94;;;26.99;47.81
13235;BME280;6683;48.506;9.050;2023-05-22T09:02:08;97740.63;;;27.10;47.60
13235;BME280;6683;48.506;9.050;2023-05-22T09:05:11;97741.78;;;27.17;47.14
13235;BME280;6683;48.506;9.050;2023-05-22T09:08:13;97737.63;;;27.33;46.53
13235;BME280;6683;48.506;9.050;2023-05-22T09:11:20;97740.28;;;27.38;46.22
13235;BME280;6683;48.506;9.050;2023-05-22T09:14:22;97742.97;;;27.38;46.51
13235;BME280;6683;48.506;9.050;2023-05-22T09:17:26;97735.22;;;27.45;46.17
13235;BME280;6683;48.506;9.050;2023-05-22T09:20:34;97731.81;;;27.53;46.16
13235;BME280;6683;48.506;9.050;2023-05-22T09:23:36;97735.25;;;27.67;45.71
13235;BME280;6683;48.506;9.050;2023-05-22T09:26:40;97737.53;;;27.74;45.91
13235;BME280;6683;48.506;9.050;2023-05-22T09:29:51;97739.13;;;27.75;45.30
13235;BME280;6683;48.506;9.050;2023-05-22T09:32:54;97740.44;;;27.78;45.48
13235;BME280;6683;48.506;9.050;2023-05-22T09:35:57;97734.44;;;27.89;45.28
13235;BME280;6683;48.506;9.050;2023-05-22T09:39:04;97725.03;;;28.09;45.02
13235;BME280;6683;48.506;9.050;2023-05-22T09:42:09;97721.78;;;28.29;44.17
13235;BME280;6683;48.506;9.050;2023-05-22T09:45:19;97724.13;;;28.53;43.76
13235;BME280;6683;48.506;9.050;2023-05-22T09:48:23;97725.97;;;28.66;43.80
13235;BME280;6683;48.506;9.050;2023-05-22T09:51:26;97722.63;;;28.77;43.40
13235;BME280;6683;48.506;9.050;2023-05-22T09:54:32;97724.25;;;28.78;42.81
13235;BME280;6683;48.506;9.050;2023-05-22T09:57:41;97710.34;;;28.80;42.26
13235;BME280;6683;48.506;9.050;2023-05-22T10:00:45;97712.75;;;28.90;42.51
13235;BME280;6683;48.506;9.050;2023-05-22T10:03:53;97713.94;;;29.06;42.17
13235;BME280;6683;48.506;9.050;2023-05-22T10:06:58;97709.19;;;29.29;42.24
13235;BME280;6683;48.506;9.050;2023-05-22T10:10:06;97709.38;;;29.58;41.48
13235;BME280;6683;48.506;9.050;2023-05-22T10:13:12;97708.09;;;29.81;41.47
13235;BME280;6683;48.506;9.050;2023-05-22T10:16:15;97706.13;;;29.98;41.14
13235;BME280;6683;48.506;9.050;2023-05-22T10:19:18;97707.72;;;30.08;40.88
13235;BME280;6683;48.506;9.050;2023-05-22T10:22:22;97704.47;;;30.15;40.81
13235;BME280;6683;48.506;9.050;2023-05-22T10:25:26;97702.06;;;30.30;40.75
13235;BME280;6683;48.506;9.050;2023-05-22T10:28:39;97697.06;;;30.41;40.45
13235;BME280;6683;48.506;9.050;2023-05-22T10:31:49;97692.53;;;30.53;40.55
13235;BME280;6683;48.506;9.050;2023-05-22T10:35:00;97699.00;;;30.69;39.73
13235;BME280;6683;48.506;9.050;2023-05-22T10:41:44;97685.16;;;30.92;39.22
13235;BME280;6683;48.506;9.050;2023-05-22T10:44:48;97682.88;;;30.94;38.63
13235;BME280;6683;48.506;9.050;2023-05-22T10:48:04;97685.44;;;30.90;39.01
13235;BME280;6683;48.506;9.050;2023-05-22T10:51:07;97675.66;;;30.98;38.66
13235;BME280;6683;48.506;9.050;2023-05-22T10:54:09;97678.22;;;30.94;38.40
13235;BME280;6683;48.506;9.050;2023-05-22T10:57:16;97665.50;;;30.98;38.55
13235;BME280;6683;48.506;9.050;2023-05-22T11:00:23;97663.53;;;31.28;38.54
13235;BME280;6683;48.506;9.050;2023-05-22T11:03:26;97656.63;;;31.51;37.97
13235;BME280;6683;48.506;9.050;2023-05-22T11:06:37;97657.13;;;31.65;37.78
13235;BME280;6683;48.506;9.050;2023-05-22T11:09:42;97654.03;;;31.87;37.64
13235;BME280;6683;48.506;9.050;2023-05-22T11:12:47;97637.59;;;32.08;36.78
13235;BME280;6683;48.506;9.050;2023-05-22T11:16:07;97635.13;;;32.39;36.20
13235;BME280;6683;48.506;9.050;2023-05-22T11:19:10;97637.97;;;32.79;35.61
13235;BME280;6683;48.506;9.050;2023-05-22T11:22:12;97628.03;;;33.11;35.22
13235;BME280;6683;48.506;9.050;2023-05-22T11:25:16;97620.19;;;33.37;34.65
13235;BME280;6683;48.506;9.050;2023-05-22T11:28:20;97613.50;;;33.62;33.83
13235;BME280;6683;48.506;9.050;2023-05-22T11:31:25;97613.06;;;33.75;33.46
13235;BME280;6683;48.506;9.050;2023-05-22T11:34:28;97599.56;;;33.82;33.71
13235;BME280;6683;48.506;9.050;2023-05-22T11:37:30;97601.78;;;33.93;33.44
13235;BME280;6683;48.506;9.050;2023-05-22T11:40:33;97588.13;;;34.08;33.48
13235;BME280;6683;48.506;9.050;2023-05-22T11:43:35;97589.97;;;34.20;32.88
13235;BME280;6683;48.506;9.050;2023-05-22T11:46:39;97596.88;;;34.29;32.39
13235;BME280;6683;48.506;9.050;2023-05-22T11:49:42;97589.00;;;34.28;32.22
13235;BME280;6683;48.506;9.050;2023-05-22T11:52:45;97584.06;;;34.33;31.94
13235;BME280;6683;48.506;9.050;2023-05-22T11:55:47;97579.53;;;34.41;31.84
13235;BME280;6683;48.506;9.050;2023-05-22T11:58:50;97583.75;;;34.38;31.34
13235;BME280;6683;48.506;9.050;2023-05-22T12:01:54;97579.72;;;34.32;31.34
13235;BME280;6683;48.506;9.050;2023-05-22T12:04:57;97588.72;;;34.33;31.31
13235;BME280;6683;48.506;9.050;2023-05-22T12:07:59;97586.94;;;34.40;32.53
13235;BME280;6683;48.506;9.050;2023-05-22T12:11:04;97583.06;;;34.57;31.97
13235;BME280;6683;48.506;9.050;2023-05-22T12:14:10;97578.34;;;34.73;31.15
13235;BME280;6683;48.506;9.050;2023-05-22T12:17:16;97576.97;;;34.83;31.07
13235;BME280;6683;48.506;9.050;2023-05-22T12:20:19;97577.97;;;34.75;30.78
13235;BME280;6683;48.506;9.050;2023-05-22T12:23:23;97576.94;;;34.64;30.63
13235;BME280;6683;48.506;9.050;2023-05-22T12:26:26;97578.66;;;34.52;30.39
13235;BME280;6683;48.506;9.050;2023-05-22T12:29:28;97585.81;;;34.41;30.75
13235;BME280;6683;48.506;9.050;2023-05-22T12:32:32;97583.63;;;34.31;30.45
13235;BME280;6683;48.506;9.050;2023-05-22T12:35:37;97576.00;;;34.25;31.00
13235;BME280;6683;48.506;9.050;2023-05-22T12:38:40;97575.22;;;34.24;31.42
13235;BME280;6683;48.506;9.050;2023-05-22T12:41:43;97563.69;;;34.34;30.92
13235;BME280;6683;48.506;9.050;2023-05-22T12:44:45;97577.72;;;34.48;30.83
13235;BME280;6683;48.506;9.050;2023-05-22T12:47:49;97572.69;;;34.66;30.38
13235;BME280;6683;48.506;9.050;2023-05-22T12:50:52;97570.97;;;34.77;29.91
13235;BME280;6683;48.506;9.050;2023-05-22T12:53:54;97582.66;;;34.74;29.31
13235;BME280;6683;48.506;9.050;2023-05-22T12:56:58;97574.06;;;34.56;29.52
13235;BME280;6683;48.506;9.050;2023-05-22T13:00:01;97573.78;;;34.30;29.08
13235;BME280;6683;48.506;9.050;2023-05-22T13:03:06;97564.09;;;34.02;29.43
13235;BME280;6683;48.506;9.050;2023-05-22T13:06:09;97559.97;;;33.80;29.23
13235;BME280;6683;48.506;9.050;2023-05-22T13:09:12;97577.38;;;33.56;29.58
13235;BME280;6683;48.506;9.050;2023-05-22T13:12:16;97578.34;;;33.36;29.51
13235;BME280;6683;48.506;9.050;2023-05-22T13:15:19;97577.50;;;33.20;29.65
13235;BME280;6683;48.506;9.050;2023-05-22T13:18:22;97586.56;;;33.09;30.35
13235;BME280;6683;48.506;9.050;2023-05-22T13:21:25;97589.75;;;32.98;32.06
13235;BME280;6683;48.506;9.050;2023-05-22T13:24:27;97589.69;;;32.83;31.84
13235;BME280;6683;48.506;9.050;2023-05-22T13:27:30;97579.66;;;32.63;32.50
13235;BME280;6683;48.506;9.050;2023-05-22T13:30:35;97588.34;;;32.41;32.38
13235;BME280;6683;48.506;9.050;2023-05-22T13:33:39;97581.16;;;32.12;33.01
13235;BME280;6683;48.506;9.050;2023-05-22T13:36:41;97588.84;;;31.86;34.20
13235;BME280;6683;48.506;9.050;2023-05-22T13:39:44;97596.59;;;31.51;34.93
13235;BME280;6683;48.506;9.050;2023-05-22T13:42:46;97606.22;;;31.16;35.83
13235;BME280;6683;48.506;9.050;2023-05-22T13:45:48;97608.38;;;30.81;36.50
13235;BME280;6683;48.506;9.050;2023-05-22T13:48:52;97623.31;;;30.46;37.49
13235;BME280;6683;48.506;9.050;2023-05-22T13:51:54;97631.81;;;30.07;38.06
13235;BME280;6683;48.506;9.050;2023-05-22T13:54:57;97660.88;;;29.60;38.35
13235;BME280;6683;48.506;9.050;2023-05-22T13:57:59;97683.53;;;28.95;39.38
13235;BME280;6683;48.506;9.050;2023-05-22T14:01:02;97687.19;;;28.43;39.67
13235;BME280;6683;48.506;9.050;2023-05-22T14:04:06;97681.47;;;27.92;40.17
13235;BME280;6683;48.506;9.050;2023-05-22T14:07:08;97691.84;;;27.45;41.17
13235;BME280;6683;48.506;9.050;2023-05-22T14:10:11;97702.19;;;27.08;41.91
13235;BME280;6683;48.506;9.050;2023-05-22T14:13:13;97709.13;;;26.73;42.48
13235;BME280;6683;48.506;9.050;2023-05-22T14:16:16;97718.34;;;26.45;43.42
13235;BME280;6683;48.506;9.050;2023-05-22T14:19:20;97712.41;;;26.16;44.31
13235;BME280;6683;48.506;9.050;2023-05-22T14:22:22;97715.69;;;25.80;45.66
13235;BME280;6683;48.506;9.050;2023-05-22T14:25:25;97716.59;;;25.38;47.40
13235;BME280;6683;48.506;9.050;2023-05-22T14:28:27;97715.09;;;24.90;49.25
13235;BME280;6683;48.506;9.050;2023-05-22T14:31:32;97713.81;;;24.35;51.68
13235;BME280;6683;48.506;9.050;2023-05-22T14:34:46;97714.91;;;23.77;54.55
13235;BME280;6683;48.506;9.050;2023-05-22T14:37:48;97738.66;;;23.26;56.62
13235;BME280;6683;48.506;9.050;2023-05-22T14:40:51;97753.16;;;22.76;58.59
13235;BME280;6683;48.506;9.050;2023-05-22T14:43:54;97757.31;;;22.34;60.30
13235;BME280;6683;48.506;9.050;2023-05-22T14:46:56;97754.91;;;21.97;61.85
13235;BME280;6683;48.506;9.050;2023-05-22T14:50:01;97760.28;;;21.67;63.06
13235;BME280;6683;48.506;9.050;2023-05-22T14:53:03;97750.84;;;21.39;64.09
13235;BME280;6683;48.506;9.050;2023-05-22T14:56:06;97747.81;;;21.15;64.76
13235;BME280;6683;48.506;9.050;2023-05-22T14:59:09;97740.78;;;20.99;65.77
13235;BME280;6683;48.506;9.050;2023-05-22T15:02:12;97726.53;;;20.84;66.54
13235;BME280;6683;48.506;9.050;2023-05-22T15:05:17;97719.78;;;20.76;67.33
13235;BME280;6683;48.506;9.050;2023-05-22T15:08:20;97711.97;;;20.69;67.79
13235;BME280;6683;48.506;9.050;2023-05-22T15:11:24;97713.00;;;20.63;68.23
13235;BME280;6683;48.506;9.050;2023-05-22T15:14:27;97720.78;;;20.60;68.68
13235;BME280;6683;48.506;9.050;2023-05-22T15:17:29;97713.25;;;20.57;69.34
13235;BME280;6683;48.506;9.050;2023-05-22T15:20:34;97707.66;;;20.58;69.73
13235;BME280;6683;48.506;9.050;2023-05-22T15:23:37;97702.81;;;20.60;70.10
13235;BME280;6683;48.506;9.050;2023-05-22T15:26:39;97696.38;;;20.61;70.23
13235;BME280;6683;48.506;9.050;2023-05-22T15:29:42;97703.38;;;20.62;70.48
13235;BME280;6683;48.506;9.050;2023-05-22T15:32:53;97700.41;;;20.64;70.47
13235;BME280;6683;48.506;9.050;2023-05-22T15:35:58;97704.72;;;20.65;70.89
13235;BME280;6683;48.506;9.050;2023-05-22T15:39:00;97700.69;;;20.67;70.84
13235;BME280;6683;48.506;9.050;2023-05-22T15:42:03;97689.97;;;20.67;71.08
13235;BME280;6683;48.506;9.050;2023-05-22T15:45:07;97682.47;;;20.69;71.22
13235;BME280;6683;48.506;9.050;2023-05-22T15:48:10;97674.94;;;20.71;71.37
13235;BME280;6683;48.506;9.050;2023-05-22T15:51:14;97673.91;;;20.73;71.39
13235;BME280;6683;48.506;9.050;2023-05-22T15:54:16;97668.25;;;20.74;71.74
13235;BME280;6683;48.506;9.050;2023-05-22T15:57:19;97660.75;;;20.76;71.70
13235;BME280;6683;48.506;9.050;2023-05-22T16:00:21;97654.34;;;20.77;72.00
13235;BME280;6683;48.506;9.050;2023-05-22T16:03:24;97646.00;;;20.79;72.12
13235;BME280;6683;48.506;9.050;2023-05-22T16:06:28;97654.88;;;20.79;72.20
13235;BME280;6683;48.506;9.050;2023-05-22T16:09:30;97658.63;;;20.83;72.46
13235;BME280;6683;48.506;9.050;2023-05-22T16:12:32;97667.50;;;20.84;72.18
13235;BME280;6683;48.506;9.050;2023-05-22T16:15:35;97679.56;;;20.86;72.51
13235;BME280;6683;48.506;9.050;2023-05-22T16:18:39;97694.31;;;20.89;72.73
13235;BME280;6683;48.506;9.050;2023-05-22T16:21:43;97688.72;;;20.90;72.66
13235;BME280;6683;48.506;9.050;2023-05-22T16:24:46;97706.94;;;20.93;72.84
13235;BME280;6683;48.506;9.050;2023-05-22T16:27:48;97712.88;;;20.95;72.91
13235;BME280;6683;48.506;9.050;2023-05-22T16:30:50;97703.47;;;20.98;73.23